Time;durP1;ratioP1;P1;durP2;ratioP2;P2;SDS_P1;SDS_P2;PMS_P1;PMS_P2;Temp;Humidity;BMP_temperature;BMP_pressure;BME280_temperature;BME280_humidity;BME280_pressure;Samples;Min_cycle;Max_cycle;Signal;HPM_P1;HPM_P2
2024/02/27 00:00:22;;;;;;;15.70;8.00;;;;;;;5.90;54.78;101270.55;104723;1264;60508;-60
2024/02/27 00:02:50;;;;;;;17.10;7.90;;;;;;;5.88;54.69;101268.91;104782;1261;59669;-57
2024/02/27 00:05:19;;;;;;;19.40;6.50;;;;;;;5.84;54.58;101272.77;104896;1261;64189;-58
2024/02/27 00:07:46;;;;;;;12.10;7.90;;;;;;;5.79;54.55;101271.60;104776;1261;61799;-58
2024/02/27 00:10:14;;;;;;;14.00;6.50;;;;;;;5.72;54.60;101269.46;104703;1264;63827;-58
2024/02/27 00:12:42;;;;;;;15.40;6.80;;;;;;;5.66;54.66;101267.67;104703;1261;59620;-59
2024/02/27 00:15:10;;;;;;;17.60;8.10;;;;;;;5.59;54.69;101265.72;105029;1263;59593;-59
2024/02/27 00:17:38;;;;;;;14.30;7.00;;;;;;;5.53;54.72;101263.02;104845;1264;64371;-60
2024/02/27 00:20:07;;;;;;;15.60;7.00;;;;;;;5.49;54.67;101270.34;105036;1261;60256;-60
2024/02/27 00:22:37;;;;;;;18.20;8.90;;;;;;;5.44;54.79;101275.09;104602;1264;63826;-60
2024/02/27 00:25:05;;;;;;;15.20;7.50;;;;;;;5.36;54.93;101276.45;104989;1265;61215;-59
2024/02/27 00:27:33;;;;;;;15.40;8.70;;;;;;;5.30;54.93;101278.32;105000;1261;59600;-63
2024/02/27 00:30:02;;;;;;;19.70;6.90;;;;;;;5.23;55.10;101277.20;105044;1262;64173;-65
2024/02/27 00:32:30;;;;;;;15.20;6.80;;;;;;;5.17;55.27;101284.41;105871;1264;60313;-63
2024/02/27 00:34:57;;;;;;;16.30;8.30;;;;;;;5.08;55.34;101281.33;105485;1264;64436;-65
2024/02/27 00:37:25;;;;;;;11.50;6.60;;;;;;;5.01;55.48;101278.15;105526;1264;59721;-65
2024/02/27 00:39:53;;;;;;;10.80;5.90;;;;;;;5.02;55.50;101271.66;105422;1264;59719;-63
2024/02/27 00:42:21;;;;;;;11.40;4.50;;;;;;;5.08;55.37;101270.37;104844;1269;65159;-62
2024/02/27 00:44:48;;;;;;;11.20;5.70;;;;;;;5.13;55.35;101272.26;105983;1260;62323;-63
2024/02/27 00:47:16;;;;;;;12.00;5.30;;;;;;;5.18;55.37;101273.27;106117;1255;63936;-62
2024/02/27 00:49:43;;;;;;;12.10;5.70;;;;;;;5.23;55.45;101274.42;105893;1260;59665;-62
2024/02/27 00:52:11;;;;;;;12.30;5.40;;;;;;;5.28;55.45;101274.73;106068;1260;59669;-62
2024/02/27 00:54:39;;;;;;;12.00;6.30;;;;;;;5.29;55.36;101274.16;105932;1257;62899;-62
2024/02/27 00:57:07;;;;;;;16.00;6.10;;;;;;;5.27;55.45;101267.10;106010;1260;60540;-62
2024/02/27 00:59:35;;;;;;;14.00;7.00;;;;;;;5.28;55.48;101264.30;105251;1258;64267;-61
2024/02/27 01:02:02;;;;;;;12.90;7.00;;;;;;;5.28;55.23;101263.80;106248;1257;59269;-60
2024/02/27 01:04:32;;;;;;;13.20;7.50;;;;;;;5.24;55.20;101262.38;105290;1255;59666;-59
2024/02/27 01:07:00;;;;;;;13.80;5.90;;;;;;;5.20;55.17;101261.67;107602;1257;64641;-60
2024/02/27 01:09:32;;;;;;;16.20;6.80;;;;;;;5.16;55.01;101260.66;106113;1257;62416;-60
2024/02/27 01:12:01;;;;;;;13.20;6.30;;;;;;;5.07;54.99;101254.95;106003;1257;66868;-61
2024/02/27 01:14:29;;;;;;;18.70;6.50;;;;;;;5.01;54.99;101249.45;105964;1254;59758;-59
2024/02/27 01:16:57;;;;;;;16.60;7.60;;;;;;;4.93;55.16;101245.27;104994;1254;60216;-59
2024/02/27 01:19:26;;;;;;;12.90;6.80;;;;;;;4.87;55.39;101245.54;105198;1260;64179;-58
2024/02/27 01:21:57;;;;;;;15.50;7.60;;;;;;;4.83;55.36;101244.66;105691;1260;60216;-59
2024/02/27 01:24:24;;;;;;;13.90;7.00;;;;;;;4.77;55.46;101250.11;106479;1254;64198;-59
2024/02/27 01:26:52;;;;;;;18.30;8.40;;;;;;;4.68;55.69;101247.55;105881;1260;59660;-59
2024/02/27 01:29:20;;;;;;;11.70;6.40;;;;;;;4.60;55.87;101249.07;105267;1257;62608;-59
2024/02/27 01:31:48;;;;;;;17.60;7.40;;;;;;;4.54;55.86;101250.73;105126;1254;62913;-59
2024/02/27 01:34:15;;;;;;;17.40;7.90;;;;;;;4.47;55.94;101247.36;105190;1260;60669;-59
2024/02/27 01:36:44;;;;;;;13.50;5.70;;;;;;;4.42;55.94;101245.65;105126;1260;65199;-61
2024/02/27 01:39:13;;;;;;;14.80;6.40;;;;;;;4.38;56.09;101247.19;105093;1255;59808;-59
2024/02/27 01:41:47;;;;;;;10.80;3.80;;;;;;;4.40;56.11;101253.54;105540;1251;61439;-60
2024/02/27 01:44:15;;;;;;;10.50;3.40;;;;;;;4.46;56.02;101251.58;105584;1256;64118;-58
2024/02/27 01:46:42;;;;;;;9.70;4.30;;;;;;;4.51;55.97;101251.38;105785;1252;62066;-61
2024/02/27 01:49:10;;;;;;;11.20;4.10;;;;;;;4.56;56.01;101251.68;106301;1251;65230;-60
2024/02/27 01:51:38;;;;;;;9.70;4.10;;;;;;;4.63;56.09;101253.14;106185;1258;59722;-60
2024/02/27 01:54:05;;;;;;;13.40;5.60;;;;;;;4.70;56.06;101253.35;106283;1256;60004;-60
2024/02/27 01:56:33;;;;;;;14.60;5.50;;;;;;;4.72;55.96;101250.85;105334;1251;64334;-60
2024/02/27 01:59:01;;;;;;;11.90;6.20;;;;;;;4.75;56.05;101252.65;109027;1254;61525;-60
2024/02/27 02:01:29;;;;;;;10.10;6.40;;;;;;;4.79;55.96;101251.61;106003;1256;62518;-60
2024/02/27 02:03:57;;;;;;;15.30;6.90;;;;;;;4.81;55.87;101252.55;105881;1257;59707;-60
2024/02/27 02:06:25;;;;;;;12.10;5.50;;;;;;;4.82;55.79;101254.45;105330;1251;59755;-60
2024/02/27 02:08:53;;;;;;;15.60;5.40;;;;;;;4.79;55.60;101257.33;106703;1257;64314;-61
2024/02/27 02:11:21;;;;;;;11.30;6.10;;;;;;;4.75;55.66;101257.67;106501;1257;68935;-61
2024/02/27 02:13:49;;;;;;;12.80;6.10;;;;;;;4.72;55.55;101266.52;105564;1251;63815;-59
2024/02/27 02:16:17;;;;;;;11.60;4.60;;;;;;;4.66;55.53;101266.94;105931;1257;61118;-65
2024/02/27 02:18:44;;;;;;;12.40;5.10;;;;;;;4.60;55.61;101268.90;106009;1256;60911;-62
2024/02/27 02:21:12;;;;;;;12.10;6.70;;;;;;;4.53;55.66;101268.48;105493;1250;62902;-59
2024/02/27 02:23:40;;;;;;;14.70;6.60;;;;;;;4.46;55.75;101269.11;105632;1251;72580;-61
2024/02/27 02:26:08;;;;;;;14.20;5.50;;;;;;;4.40;55.75;101269.88;105352;1251;72754;-59
2024/02/27 02:28:36;;;;;;;23.30;7.70;;;;;;;4.36;55.88;101275.42;105577;1254;59632;-61
2024/02/27 02:31:04;;;;;;;11.50;5.30;;;;;;;4.32;56.05;101273.48;105332;1259;59885;-59
2024/02/27 02:33:31;;;;;;;13.80;5.90;;;;;;;4.31;56.15;101271.63;105555;1257;64224;-61
2024/02/27 02:35:59;;;;;;;13.30;6.00;;;;;;;4.28;56.09;101271.41;105483;1257;60235;-60
2024/02/27 02:38:27;;;;;;;17.10;6.10;;;;;;;4.24;56.17;101267.89;105510;1254;63898;-59
2024/02/27 02:40:55;;;;;;;11.10;4.60;;;;;;;4.24;56.04;101267.20;105759;1258;59762;-60
2024/02/27 02:43:22;;;;;;;10.90;4.50;;;;;;;4.28;55.98;101270.54;105362;1259;59638;-61
2024/02/27 02:45:50;;;;;;;12.10;4.60;;;;;;;4.32;55.98;101269.84;105953;1251;64214;-66
2024/02/27 02:48:18;;;;;;;10.50;3.90;;;;;;;4.37;55.96;101267.04;105649;1251;61573;-60
2024/02/27 02:50:46;;;;;;;14.80;4.50;;;;;;;4.42;55.88;101272.38;106229;1257;62700;-60
2024/02/27 02:53:14;;;;;;;11.30;4.50;;;;;;;4.51;55.86;101273.27;105530;1256;59665;-60
2024/02/27 02:55:42;;;;;;;12.60;4.80;;;;;;;4.57;55.85;101273.55;106276;1250;59762;-60
2024/02/27 02:58:10;;;;;;;12.30;5.80;;;;;;;4.59;55.73;101275.19;105424;1251;64644;-58
2024/02/27 03:00:38;;;;;;;13.70;5.90;;;;;;;4.59;55.68;101276.90;105461;1251;61540;-59
2024/02/27 03:03:05;;;;;;;14.00;5.50;;;;;;;4.56;55.64;101272.18;105473;1251;65980;-60
2024/02/27 03:05:33;;;;;;;10.50;5.90;;;;;;;4.53;55.51;101270.58;105389;1251;59628;-60
2024/02/27 03:08:01;;;;;;;14.80;5.90;;;;;;;4.47;55.47;101270.63;105740;1257;60031;-59
2024/02/27 03:10:28;;;;;;;15.40;6.80;;;;;;;4.41;55.50;101275.08;105504;1251;62894;-59
2024/02/27 03:12:56;;;;;;;10.10;5.10;;;;;;;4.36;55.46;101280.98;105467;1256;60337;-58
2024/02/27 03:15:24;;;;;;;16.10;6.90;;;;;;;4.29;55.59;101282.64;105387;1254;64305;-62
2024/02/27 03:17:51;;;;;;;12.60;5.90;;;;;;;4.23;55.66;101283.59;105575;1252;59662;-60
2024/02/27 03:20:19;;;;;;;15.70;6.50;;;;;;;4.17;55.80;101286.60;105932;1252;59750;-60
2024/02/27 03:22:47;;;;;;;11.00;5.80;;;;;;;4.12;55.87;101285.39;105488;1256;64376;-61
2024/02/27 03:25:15;;;;;;;14.50;6.20;;;;;;;4.07;55.96;101284.02;105337;1256;60246;-60
2024/02/27 03:27:42;;;;;;;16.70;7.90;;;;;;;4.03;56.04;101282.27;106281;1257;62534;-64
2024/02/27 03:30:13;;;;;;;12.80;6.40;;;;;;;3.98;56.09;101280.38;105429;1251;60439;-61
2024/02/27 03:32:41;;;;;;;18.90;6.20;;;;;;;3.93;56.18;101283.32;106498;1257;60408;-61
2024/02/27 03:35:09;;;;;;;11.50;5.40;;;;;;;3.88;56.45;101282.48;105432;1256;64920;-60
2024/02/27 03:37:37;;;;;;;10.20;5.00;;;;;;;3.84;56.44;101288.34;105791;1256;60407;-59
2024/02/27 03:40:07;;;;;;;11.50;4.70;;;;;;;3.85;56.45;101288.66;105496;1257;70754;-59
2024/02/27 03:42:35;;;;;;;9.80;4.80;;;;;;;3.90;56.46;101290.73;105670;1257;60662;-61
2024/02/27 03:45:04;;;;;;;16.60;5.00;;;;;;;3.95;56.46;101291.41;105434;1257;61470;-61
2024/02/27 03:47:32;;;;;;;14.50;3.90;;;;;;;4.00;56.44;101291.94;108179;1251;64985;-61
2024/02/27 03:49:59;;;;;;;12.20;3.80;;;;;;;4.07;56.48;101293.23;105406;1257;62012;-61
2024/02/27 03:52:28;;;;;;;12.00;5.50;;;;;;;4.14;56.34;101292.77;105806;1257;63835;-61
2024/02/27 03:54:55;;;;;;;12.60;6.10;;;;;;;4.19;56.40;101291.55;105355;1252;60588;-61
2024/02/27 03:57:23;;;;;;;14.90;6.60;;;;;;;4.22;56.51;101293.00;105530;1251;61649;-61
2024/02/27 03:59:51;;;;;;;13.10;6.10;;;;;;;4.20;56.46;101297.39;105917;1251;65051;-61
2024/02/27 04:02:19;;;;;;;13.20;5.50;;;;;;;4.18;56.34;101299.21;105441;1255;61754;-61
2024/02/27 04:04:46;;;;;;;13.60;6.10;;;;;;;4.15;56.36;101299.67;105385;1253;62540;-62
2024/02/27 04:07:14;;;;;;;13.60;6.90;;;;;;;4.09;56.38;101298.16;105478;1257;61641;-56
2024/02/27 04:09:42;;;;;;;13.40;5.30;;;;;;;4.03;56.44;101299.11;105485;1251;60543;-61
2024/02/27 04:12:10;;;;;;;14.80;6.70;;;;;;;3.99;56.49;101302.02;106290;1257;64995;-61
2024/02/27 04:14:38;;;;;;;13.40;5.30;;;;;;;3.95;56.50;101304.08;105546;1251;61734;-60
2024/02/27 04:17:05;;;;;;;12.60;5.70;;;;;;;3.90;56.56;101304.11;105432;1257;63809;-61
2024/02/27 04:19:33;;;;;;;11.90;6.10;;;;;;;3.84;56.79;101304.67;105412;1253;60438;-58
2024/02/27 04:22:01;;;;;;;11.70;5.50;;;;;;;3.79;56.95;101303.48;105955;1252;60492;-61
2024/02/27 04:24:29;;;;;;;14.20;5.70;;;;;;;3.76;57.00;101305.68;105755;1256;63817;-57
2024/02/27 04:26:56;;;;;;;13.20;6.40;;;;;;;3.72;57.05;101307.56;106785;1256;60255;-57
2024/02/27 04:29:24;;;;;;;23.90;8.80;;;;;;;3.68;57.15;101309.42;105464;1252;63810;-58
2024/02/27 04:31:52;;;;;;;8.50;4.60;;;;;;;3.65;57.29;101313.53;105416;1256;60427;-59
2024/02/27 04:34:19;;;;;;;9.00;3.40;;;;;;;3.67;57.32;101312.25;105439;1251;60105;-57
2024/02/27 04:36:47;;;;;;;12.00;4.60;;;;;;;3.76;57.29;101314.89;105405;1257;65050;-58
2024/02/27 04:39:15;;;;;;;11.60;4.60;;;;;;;3.83;57.19;101317.74;105478;1256;60536;-59
2024/02/27 04:41:43;;;;;;;9.80;4.10;;;;;;;3.91;57.16;101320.40;105630;1251;62674;-58
2024/02/27 04:44:14;;;;;;;9.50;3.80;;;;;;;3.98;57.08;101318.92;105390;1251;60645;-59
2024/02/27 04:46:41;;;;;;;12.70;5.40;;;;;;;4.03;57.02;101322.03;105453;1252;60361;-60
2024/02/27 04:49:09;;;;;;;21.90;7.00;;;;;;;4.06;57.11;101323.27;105480;1252;66115;-58
2024/02/27 04:51:37;;;;;;;12.60;5.20;;;;;;;4.10;57.21;101323.83;106329;1256;61541;-60
2024/02/27 04:54:05;;;;;;;15.30;5.40;;;;;;;4.10;57.12;101324.02;105308;1256;62839;-57
2024/02/27 04:56:32;;;;;;;23.50;13.40;;;;;;;4.08;57.14;101328.23;105344;1251;60450;-59
2024/02/27 04:59:00;;;;;;;12.20;6.40;;;;;;;4.07;57.17;101332.11;105334;1252;60456;-57
2024/02/27 05:01:28;;;;;;;13.20;5.60;;;;;;;4.07;57.16;101337.16;105326;1252;63896;-59
2024/02/27 05:03:55;;;;;;;15.10;6.00;;;;;;;4.04;57.03;101340.23;105344;1252;61547;-61
2024/02/27 05:06:23;;;;;;;11.20;5.20;;;;;;;4.04;57.06;101344.72;107359;1257;64697;-58
2024/02/27 05:08:51;;;;;;;14.50;5.50;;;;;;;4.05;57.04;101345.73;105992;1256;60479;-60
2024/02/27 05:11:19;;;;;;;14.60;7.00;;;;;;;4.04;56.96;101345.08;105315;1257;60509;-60
2024/02/27 05:13:47;;;;;;;11.10;4.70;;;;;;;4.03;56.89;101347.90;105444;1252;64966;-59
2024/02/27 05:16:14;;;;;;;16.50;5.90;;;;;;;4.00;56.79;101347.13;105367;1257;61983;-59
2024/02/27 05:18:42;;;;;;;15.50;7.20;;;;;;;3.98;57.01;101349.63;105308;1256;62517;-60
2024/02/27 05:21:10;;;;;;;20.10;5.50;;;;;;;3.98;57.03;101352.09;105346;1256;60405;-60
2024/02/27 05:23:38;;;;;;;13.70;5.30;;;;;;;3.95;56.93;101354.43;105335;1257;60380;-61
2024/02/27 05:26:05;;;;;;;15.70;5.20;;;;;;;3.94;56.89;101357.64;105343;1251;63732;-61
2024/02/27 05:28:33;;;;;;;12.70;4.40;;;;;;;3.97;56.86;101363.05;105850;1256;60583;-59
2024/02/27 05:31:01;;;;;;;11.30;4.50;;;;;;;4.05;56.79;101365.35;105347;1256;64167;-60
2024/02/27 05:33:29;;;;;;;9.30;4.20;;;;;;;4.13;56.80;101368.18;105726;1257;60617;-58
2024/02/27 05:35:57;;;;;;;9.00;4.10;;;;;;;4.21;56.84;101366.69;105350;1257;60996;-61
2024/02/27 05:38:25;;;;;;;10.40;4.40;;;;;;;4.29;56.79;101372.09;105860;1252;65403;-59
2024/02/27 05:40:52;;;;;;;8.30;4.90;;;;;;;4.38;56.80;101372.43;105971;1256;69075;-59
2024/02/27 05:43:20;;;;;;;15.70;6.70;;;;;;;4.46;56.71;101374.07;105329;1257;64280;-60
2024/02/27 05:45:48;;;;;;;16.70;6.80;;;;;;;4.52;56.72;101375.40;105395;1256;60549;-59
2024/02/27 05:48:15;;;;;;;13.10;5.10;;;;;;;4.55;56.56;101379.98;105276;1257;60497;-58
2024/02/27 05:50:46;;;;;;;11.80;5.30;;;;;;;4.57;56.31;101383.20;105537;1252;63700;-59
2024/02/27 05:53:14;;;;;;;12.20;5.40;;;;;;;4.55;56.21;101384.64;105479;1257;61561;-62
2024/02/27 05:55:42;;;;;;;13.80;6.50;;;;;;;4.54;56.16;101385.41;106076;1257;62513;-54
2024/02/27 05:58:10;;;;;;;12.60;6.80;;;;;;;4.52;56.19;101387.92;106408;1252;60398;-53
2024/02/27 06:00:37;;;;;;;12.00;7.00;;;;;;;4.50;56.20;101384.34;107920;1256;61564;-61
2024/02/27 06:03:05;;;;;;;18.60;7.50;;;;;;;4.48;56.29;101388.05;105547;1252;63719;-58
2024/02/27 06:05:33;;;;;;;14.20;6.90;;;;;;;4.45;56.21;101387.11;105179;1257;61513;-59
2024/02/27 06:08:05;;;;;;;17.30;5.00;;;;;;;4.45;56.13;101390.25;105276;1258;62560;-60
2024/02/27 06:10:33;;;;;;;15.00;6.70;;;;;;;4.44;56.14;101388.53;105507;1253;60617;-60
2024/02/27 06:13:01;;;;;;;14.00;6.10;;;;;;;4.44;56.09;101391.50;105395;1257;60655;-59
2024/02/27 06:15:28;;;;;;;11.20;5.90;;;;;;;4.43;56.17;101395.17;105281;1252;65124;-59
2024/02/27 06:17:56;;;;;;;14.40;5.50;;;;;;;4.41;56.18;101401.86;105231;1252;61647;-58
2024/02/27 06:23:10;;;;;;;12.90;6.20;;;;;;;4.41;56.26;101411.27;105223;1256;60522;-59
2024/02/27 06:25:38;;;;;;;7.90;3.30;;;;;;;4.46;56.17;101409.34;106091;1256;60608;-59
2024/02/27 06:28:08;;;;;;;9.90;4.00;;;;;;;4.56;56.03;101410.52;105343;1258;63712;-60
2024/02/27 06:30:36;;;;;;;9.30;3.70;;;;;;;4.66;55.96;101409.95;105292;1251;61469;-61
2024/02/27 06:33:04;;;;;;;13.70;5.00;;;;;;;4.78;55.92;101410.88;105379;1254;63865;-61
2024/02/27 06:35:50;;;;;;;15.60;5.30;;;;;;;4.91;55.70;101412.46;105342;1256;60439;-67
2024/02/27 06:38:18;;;;;;;12.30;6.00;;;;;;;4.98;55.61;101414.41;105513;1251;60526;-65
2024/02/27 06:40:45;;;;;;;19.20;6.00;;;;;;;5.06;55.43;101416.90;105379;1250;63745;-63
2024/02/27 06:43:13;;;;;;;13.20;5.10;;;;;;;5.13;55.34;101415.41;105202;1260;60597;-65
2024/02/27 06:45:41;;;;;;;13.30;5.60;;;;;;;5.16;55.15;101414.42;105194;1260;63871;-65
2024/02/27 06:48:10;;;;;;;9.80;4.10;;;;;;;5.17;54.96;101418.55;105740;1257;60488;-64
2024/02/27 06:50:38;;;;;;;11.80;4.40;;;;;;;5.18;54.88;101421.10;105546;1257;60584;-66
2024/02/27 06:53:08;;;;;;;13.30;4.90;;;;;;;5.22;54.90;101422.52;105390;1252;63805;-67
2024/02/27 06:55:36;;;;;;;17.80;4.90;;;;;;;5.22;54.83;101425.81;105456;1255;62135;-64
2024/02/27 06:58:04;;;;;;;12.30;5.90;;;;;;;5.20;54.63;101425.90;105447;1257;62536;-67
2024/02/27 07:00:31;;;;;;;12.10;4.50;;;;;;;5.18;54.62;101423.73;105699;1253;60518;-60
2024/02/27 07:02:59;;;;;;;11.20;5.20;;;;;;;5.16;54.58;101419.64;105786;1257;60557;-68
2024/02/27 07:05:27;;;;;;;8.10;4.30;;;;;;;5.14;54.71;101422.13;105355;1257;63714;-67
2024/02/27 07:08:06;;;;;;;11.00;4.90;;;;;;;5.13;54.75;101425.48;105490;1254;61499;-65
2024/02/27 07:10:34;;;;;;;11.30;4.40;;;;;;;5.13;54.90;101424.45;105485;1251;64288;-69
2024/02/27 07:13:01;;;;;;;13.70;6.50;;;;;;;5.15;54.82;101424.90;105803;1257;60648;-61
2024/02/27 07:15:29;;;;;;;10.20;5.00;;;;;;;5.15;54.89;101426.27;105332;1256;61701;-64
2024/02/27 07:17:57;;;;;;;13.20;6.00;;;;;;;5.17;54.85;101428.11;105102;1257;63785;-63
2024/02/27 07:20:25;;;;;;;9.00;4.20;;;;;;;5.18;54.79;101423.89;106014;1257;69248;-63
2024/02/27 07:22:54;;;;;;;14.80;5.60;;;;;;;5.18;54.87;101423.91;105259;1252;63808;-62
2024/02/27 07:25:22;;;;;;;10.80;4.80;;;;;;;5.24;54.96;101425.04;105941;1252;60552;-65
2024/02/27 07:27:50;;;;;;;19.50;3.90;;;;;;;5.35;54.83;101423.35;106003;1251;60637;-67
2024/02/27 07:30:18;;;;;;;7.60;3.90;;;;;;;5.49;54.69;101423.48;105449;1252;65032;-66
2024/02/27 07:32:46;;;;;;;11.20;3.70;;;;;;;5.62;54.52;101420.49;106023;1256;60453;-63
2024/02/27 07:35:14;;;;;;;9.60;4.60;;;;;;;5.74;54.40;101415.61;105425;1257;63751;-68
2024/02/27 07:37:42;;;;;;;10.00;4.10;;;;;;;5.86;54.27;101417.71;105331;1253;60710;-66
2024/02/27 07:40:11;;;;;;;10.90;4.60;;;;;;;5.94;54.03;101422.25;105260;1256;60481;-65
2024/02/27 07:42:38;;;;;;;9.80;5.60;;;;;;;6.03;53.81;101420.66;105593;1255;64986;-66
2024/02/27 07:45:07;;;;;;;11.80;4.40;;;;;;;6.12;53.63;101421.47;105192;1251;61839;-65
2024/02/27 07:47:34;;;;;;;9.40;3.60;;;;;;;6.20;53.31;101418.88;106424;1260;62528;-62
2024/02/27 07:50:04;;;;;;;8.60;5.00;;;;;;;6.24;52.98;101418.86;105312;1257;60581;-66
2024/02/27 07:52:31;;;;;;;9.50;3.90;;;;;;;6.29;52.84;101422.63;108950;1257;59405;-67
2024/02/27 07:55:00;;;;;;;11.20;5.30;;;;;;;6.36;52.65;101420.06;107270;1256;65088;-67
2024/02/27 07:57:27;;;;;;;12.30;5.50;;;;;;;6.44;52.47;101422.47;105353;1257;61521;-63
2024/02/27 07:59:55;;;;;;;10.10;3.80;;;;;;;6.55;52.08;101423.76;105261;1257;63846;-64
2024/02/27 08:02:26;;;;;;;15.40;6.40;;;;;;;6.62;51.80;101421.86;106142;1254;60529;-61
2024/02/27 08:04:53;;;;;;;11.10;4.60;;;;;;;6.70;51.47;101422.34;105067;1258;60450;-65
2024/02/27 08:07:21;;;;;;;12.80;4.90;;;;;;;6.76;51.22;101424.31;106055;1251;64988;-61
2024/02/27 08:09:49;;;;;;;14.70;4.60;;;;;;;6.80;51.10;101420.45;105327;1256;61546;-64
2024/02/27 08:12:17;;;;;;;11.80;4.80;;;;;;;6.84;51.06;101415.37;105331;1256;62521;-65
2024/02/27 08:14:45;;;;;;;11.70;4.40;;;;;;;6.90;50.71;101415.82;105410;1266;60469;-64
2024/02/27 08:17:12;;;;;;;9.50;4.30;;;;;;;6.93;50.53;101416.69;105434;1260;60450;-68
2024/02/27 08:19:41;;;;;;;8.50;3.50;;;;;;;6.98;50.28;101418.58;105395;1251;63708;-67
2024/02/27 08:22:09;;;;;;;18.70;6.10;;;;;;;7.03;50.18;101419.18;105490;1256;61457;-68
2024/02/27 08:24:36;;;;;;;9.50;3.90;;;;;;;7.10;50.00;101417.98;105616;1258;62534;-64
2024/02/27 08:27:04;;;;;;;10.50;5.30;;;;;;;7.19;49.84;101415.26;105242;1257;60432;-64
2024/02/27 08:29:34;;;;;;;14.40;5.40;;;;;;;7.29;49.78;101419.16;105280;1257;60484;-63
2024/02/27 08:32:02;;;;;;;10.10;4.20;;;;;;;7.33;49.31;101422.61;105487;1251;63696;-62
2024/02/27 08:34:30;;;;;;;18.80;10.90;;;;;;;7.37;49.15;101423.30;105652;1258;61562;-63
2024/02/27 08:36:58;;;;;;;9.50;3.80;;;;;;;7.42;49.05;101424.95;105715;1258;64262;-63
2024/02/27 08:39:27;;;;;;;10.30;3.90;;;;;;;7.47;48.94;101426.48;105383;1254;60554;-62
2024/02/27 08:41:54;;;;;;;8.60;3.70;;;;;;;7.51;48.65;101430.98;106756;1254;60316;-64
2024/02/27 08:44:23;;;;;;;12.50;4.20;;;;;;;7.57;48.61;101433.42;106045;1257;65667;-64
2024/02/27 08:46:53;;;;;;;10.40;5.10;;;;;;;7.64;48.25;101434.48;106922;1251;60470;-62
2024/02/27 08:49:21;;;;;;;10.90;4.70;;;;;;;7.71;47.90;101432.73;108243;1260;62515;-61
2024/02/27 08:51:49;;;;;;;8.60;4.10;;;;;;;7.76;47.58;101434.40;105354;1250;60587;-63
2024/02/27 08:54:17;;;;;;;12.80;4.60;;;;;;;7.80;47.44;101435.23;105381;1257;60305;-60
2024/02/27 08:56:47;;;;;;;20.60;10.40;;;;;;;7.83;47.29;101434.23;105569;1256;65109;-64
2024/02/27 08:59:15;;;;;;;15.00;5.60;;;;;;;7.89;47.27;101435.33;105403;1251;61566;-62
2024/02/27 09:01:43;;;;;;;10.30;4.40;;;;;;;7.94;47.20;101432.94;105371;1257;62499;-64
2024/02/27 09:04:13;;;;;;;17.70;10.40;;;;;;;8.02;47.06;101429.57;105531;1255;60460;-61
2024/02/27 09:06:41;;;;;;;10.60;4.60;;;;;;;8.10;46.96;101434.91;105483;1257;60460;-62
2024/02/27 09:09:09;;;;;;;10.90;4.60;;;;;;;8.19;46.82;101431.80;106228;1251;63770;-64
2024/02/27 09:11:37;;;;;;;17.40;10.40;;;;;;;8.27;46.65;101427.91;105512;1257;60653;-61
2024/02/27 09:14:06;;;;;;;9.50;4.50;;;;;;;8.33;46.48;101430.91;105287;1258;63939;-64
2024/02/27 09:16:34;;;;;;;15.40;5.00;;;;;;;8.36;46.40;101430.38;106334;1251;61627;-61
2024/02/27 09:19:01;;;;;;;9.40;4.40;;;;;;;8.41;46.17;101429.09;106516;1257;60476;-63
2024/02/27 09:21:29;;;;;;;18.80;10.60;;;;;;;8.47;46.07;101426.15;105307;1257;65098;-64
2024/02/27 09:23:57;;;;;;;12.40;5.20;;;;;;;8.55;45.97;101419.61;106195;1252;61557;-65
2024/02/27 09:26:25;;;;;;;11.70;4.50;;;;;;;8.59;45.68;101419.92;105753;1256;62496;-68
2024/02/27 09:28:53;;;;;;;23.00;11.00;;;;;;;8.63;45.50;101415.84;106772;1254;60440;-67
2024/02/27 09:31:21;;;;;;;12.00;4.90;;;;;;;8.67;45.29;101416.68;105347;1254;59315;-65
2024/02/27 09:33:59;;;;;;;10.10;3.80;;;;;;;8.72;45.22;101416.92;106584;1252;63992;-65
2024/02/27 09:36:27;;;;;;;21.60;10.50;;;;;;;8.79;45.14;101412.30;105978;1257;60511;-65
2024/02/27 09:38:55;;;;;;;13.90;6.50;;;;;;;8.88;45.04;101409.71;105833;1251;62684;-65
2024/02/27 09:41:33;;;;;;;17.40;5.00;;;;;;;8.96;45.02;101406.48;105514;1256;60484;-67
2024/02/27 09:44:00;;;;;;;10.00;4.60;;;;;;;9.03;44.68;101405.38;105777;1251;60450;-64
2024/02/27 09:46:28;;;;;;;26.20;13.00;;;;;;;9.10;44.43;101399.89;105705;1251;65007;-64
2024/02/27 09:48:59;;;;;;;15.90;5.50;;;;;;;9.15;44.30;101401.88;105320;1252;61570;-63
2024/02/27 09:51:27;;;;;;;15.50;6.10;;;;;;;9.21;44.11;101405.20;105419;1257;62549;-63
2024/02/27 09:53:57;;;;;;;21.00;10.10;;;;;;;9.27;43.70;101402.27;105331;1253;62950;-64
2024/02/27 09:56:25;;;;;;;9.70;4.70;;;;;;;9.30;43.27;101400.36;105904;1258;60411;-66
2024/02/27 09:58:53;;;;;;;22.60;10.50;;;;;;;9.35;43.12;101401.40;105420;1251;65932;-65
2024/02/27 10:01:21;;;;;;;19.80;9.30;;;;;;;9.42;42.97;101398.58;106089;1257;63045;-68
2024/02/27 10:03:50;;;;;;;11.80;5.10;;;;;;;9.48;42.67;101396.27;105460;1257;63834;-61
2024/02/27 10:06:18;;;;;;;17.40;8.30;;;;;;;9.55;42.58;101397.48;106095;1251;60511;-68
2024/02/27 10:08:56;;;;;;;9.90;4.50;;;;;;;9.61;42.57;101398.71;105475;1252;60453;-66
2024/02/27 10:11:24;;;;;;;19.80;10.20;;;;;;;9.67;42.37;101396.91;105448;1257;65014;-65
2024/02/27 10:13:51;;;;;;;17.40;5.90;;;;;;;9.73;42.37;101394.66;105289;1254;60502;-67
2024/02/27 10:16:21;;;;;;;19.40;9.40;;;;;;;9.77;42.34;101395.27;105502;1257;62582;-65
2024/02/27 10:18:49;;;;;;;11.40;3.40;;;;;;;9.81;41.99;101390.27;105489;1258;60366;-63
2024/02/27 10:21:17;;;;;;;15.40;9.20;;;;;;;9.87;42.01;101385.58;106144;1254;60303;-65
2024/02/27 10:23:46;;;;;;;18.00;7.70;;;;;;;9.94;42.28;101386.71;106235;1256;65033;-68
2024/02/27 10:26:15;;;;;;;7.70;4.00;;;;;;;10.01;41.99;101382.72;105536;1257;61436;-69
2024/02/27 10:28:42;;;;;;;16.10;8.50;;;;;;;10.10;41.73;101381.88;106066;1251;65766;-62
2024/02/27 10:31:11;;;;;;;5.60;3.10;;;;;;;10.18;41.53;101384.35;105347;1257;61053;-64
2024/02/27 10:33:39;;;;;;;18.80;8.20;;;;;;;10.25;41.26;101387.77;105729;1254;60363;-63
2024/02/27 10:36:10;;;;;;;12.20;6.40;;;;;;;10.31;41.30;101388.13;105681;1251;65004;-64
2024/02/27 10:38:38;;;;;;;8.30;3.20;;;;;;;10.38;41.00;101385.59;105795;1257;60521;-62
2024/02/27 10:41:06;;;;;;;13.70;7.00;;;;;;;10.43;40.73;101380.71;105424;1254;62523;-66
2024/02/27 10:43:33;;;;;;;9.90;4.00;;;;;;;10.48;40.65;101379.34;105474;1257;60520;-65
2024/02/27 10:46:02;;;;;;;21.00;7.60;;;;;;;10.54;40.15;101379.14;105102;1251;60556;-65
2024/02/27 10:48:30;;;;;;;15.30;6.20;;;;;;;10.59;39.78;101378.98;105543;1251;65022;-67
2024/02/27 10:51:13;;;;;;;9.00;4.10;;;;;;;10.66;39.15;101375.55;105206;1257;61523;-62
2024/02/27 10:53:42;;;;;;;16.20;6.90;;;;;;;10.72;38.76;101374.83;105542;1253;64294;-68
2024/02/27 10:56:10;;;;;;;9.00;3.10;;;;;;;10.76;38.22;101375.23;105278;1257;60847;-67
2024/02/27 10:58:38;;;;;;;12.90;6.00;;;;;;;10.83;38.45;101378.31;105369;1251;60529;-66
2024/02/27 11:01:06;;;;;;;14.40;7.20;;;;;;;10.89;38.51;101385.45;105251;1251;63705;-60
2024/02/27 11:03:40;;;;;;;10.60;4.20;;;;;;;10.97;38.61;101384.97;105289;1251;61381;-64
2024/02/27 11:06:10;;;;;;;12.90;5.70;;;;;;;11.04;38.27;101382.73;105439;1251;63887;-66
2024/02/27 11:08:39;;;;;;;13.40;6.30;;;;;;;11.09;37.91;101382.92;105435;1254;61649;-66
2024/02/27 11:11:09;;;;;;;12.70;6.30;;;;;;;11.14;37.81;101385.56;105414;1256;60435;-68
2024/02/27 11:13:38;;;;;;;14.80;6.50;;;;;;;11.19;37.70;101383.70;105784;1256;65137;-65
2024/02/27 11:16:06;;;;;;;14.00;6.80;;;;;;;11.22;37.56;101383.85;105603;1251;61639;-63
2024/02/27 11:18:35;;;;;;;13.40;6.40;;;;;;;11.24;37.66;101381.96;105685;1251;62527;-63
2024/02/27 11:21:04;;;;;;;8.60;3.70;;;;;;;11.28;37.78;101385.89;105791;1252;60652;-63
2024/02/27 11:23:32;;;;;;;13.80;7.20;;;;;;;11.33;37.68;101385.23;105825;1251;60551;-62